Mabel, MN

4:38 PM CST on January 30, 2015 (GMT -0600)
500 Nannestad Lane | Change Station
CLOSE
Current Station
Personal Weather Station
Location: Rushford, MN
Elevation: 728 ft
Nearby Weather Stations

Elev 728 ft 43.81 °N, 91.75 °W | Updated 59 seconds ago

Clear
Clear
25.9 °F
Feels Like 22 °F
N
3.2
Wind Variable Wind from SSW

Today
High -- | Low -- °F
--% Chance of Precip.
Yesterday
High -- | Low -- °F
Precip. -- in
7:25 AM 5:15 PM
Waxing Gibbous, 85% visible
Pressure 30.35 in
Visibility 10.0 miles
Clouds Clear
Windchill 22 °F
Dew Point 11 °F
Humidity 52%
Rainfall 0.00 in
Snow Depth Not available.
UV 0 out of 12
Pollen .10 out of 12
Air Quality Not available.
Flu Activity Not available.
METAR KDEH 302215Z AUTO VRB06KT 10SM CLR M03/M15 A3035 RMK AO2

More Conditions Fewer Conditions

Pressure 30.35 in
Visibility 10.0 miles
Clouds Clear
Windchill 22 °F
Dew Point 11 °F
Humidity 52%
Rainfall 0.00 in
Snow Depth Not available.
UV 0 out of 12
Pollen .10 out of 12
Air Quality Not available.
Flu Activity Not available.
METAR KDEH 302215Z AUTO VRB06KT 10SM CLR M03/M15 A3035 RMK AO2

More Conditions Fewer Conditions

10-Day Weather Forecast

Almanac

Astronomy

Jan. 30, 2015 Rise Set
Actual Time
Civil Twilight
Nautical Twilight
Astronomical Twilight
Moon
Length of Visible Light
Length of Day
Tomorrow will be .
, % of the Moon is Illuminated

Today's Extremes

State Highs State Lows

Community

WunderPhotos

Upload Photos

1,791,904 photos uploaded!

WunderBlogs® & News

Nearby

Air Quality

  Air Quality AQ Index Pollutant
Not available.

Snow Depth

Station Depth Elevation

Earthquake Activity

City Distance Mag. Time & Date
Minimum magnitude displayed is 2.5.

Coastal Water Temperatures

Place Temperature

Nearby Weather Stations